sensor_id;sensor_type;location;lat;lon;timestamp;P1;durP1;ratioP1;P2;durP2;ratioP2
39896;SDS011;25567;48.276;14.242;2023-07-31T00:00:57;5.85;;;2.72;;
39896;SDS011;25567;48.276;14.242;2023-07-31T00:03:24;5.60;;;2.42;;
39896;SDS011;25567;48.276;14.242;2023-07-31T00:05:51;7.07;;;3.30;;
39896;SDS011;25567;48.276;14.242;2023-07-31T00:08:17;5.35;;;2.80;;
39896;SDS011;25567;48.276;14.242;2023-07-31T00:10:44;4.45;;;2.08;;
39896;SDS011;25567;48.276;14.242;2023-07-31T00:13:10;6.53;;;2.40;;
39896;SDS011;25567;48.276;14.242;2023-07-31T00:15:38;8.25;;;2.58;;
39896;SDS011;25567;48.276;14.242;2023-07-31T00:18:05;7.80;;;3.00;;
39896;SDS011;25567;48.276;14.242;2023-07-31T00:20:31;8.88;;;3.70;;
39896;SDS011;25567;48.276;14.242;2023-07-31T00:22:57;11.05;;;3.42;;
39896;SDS011;25567;48.276;14.242;2023-07-31T00:25:24;7.38;;;2.78;;
39896;SDS011;25567;48.276;14.242;2023-07-31T00:27:51;6.80;;;2.95;;
39896;SDS011;25567;48.276;14.242;2023-07-31T00:30:17;6.32;;;2.63;;
39896;SDS011;25567;48.276;14.242;2023-07-31T00:32:44;6.03;;;2.80;;
39896;SDS011;25567;48.276;14.242;2023-07-31T00:35:10;6.15;;;3.20;;
39896;SDS011;25567;48.276;14.242;2023-07-31T00:37:37;11.43;;;2.75;;
39896;SDS011;25567;48.276;14.242;2023-07-31T00:40:03;7.63;;;2.97;;
39896;SDS011;25567;48.276;14.242;2023-07-31T00:42:30;9.23;;;3.03;;
39896;SDS011;25567;48.276;14.242;2023-07-31T00:44:56;6.07;;;2.70;;
39896;SDS011;25567;48.276;14.242;2023-07-31T00:47:23;10.05;;;2.70;;
39896;SDS011;25567;48.276;14.242;2023-07-31T00:49:50;5.10;;;2.75;;
39896;SDS011;25567;48.276;14.242;2023-07-31T00:52:16;8.77;;;2.67;;
39896;SDS011;25567;48.276;14.242;2023-07-31T00:54:43;6.43;;;2.85;;
39896;SDS011;25567;48.276;14.242;2023-07-31T00:57:09;6.18;;;2.53;;
39896;SDS011;25567;48.276;14.242;2023-07-31T00:59:36;9.88;;;2.72;;
39896;SDS011;25567;48.276;14.242;2023-07-31T01:02:03;5.88;;;2.50;;
39896;SDS011;25567;48.276;14.242;2023-07-31T01:04:30;8.10;;;2.65;;
39896;SDS011;25567;48.276;14.242;2023-07-31T01:12:02;5.20;;;3.05;;
39896;SDS011;25567;48.276;14.242;2023-07-31T01:14:29;8.88;;;3.00;;
39896;SDS011;25567;48.276;14.242;2023-07-31T01:16:56;8.25;;;2.75;;
39896;SDS011;25567;48.276;14.242;2023-07-31T01:19:23;5.05;;;2.92;;
39896;SDS011;25567;48.276;14.242;2023-07-31T01:27:21;4.75;;;2.50;;
39896;SDS011;25567;48.276;14.242;2023-07-31T01:29:56;6.50;;;2.70;;
39896;SDS011;25567;48.276;14.242;2023-07-31T01:32:25;7.82;;;2.22;;
39896;SDS011;25567;48.276;14.242;2023-07-31T01:34:53;8.60;;;3.00;;
39896;SDS011;25567;48.276;14.242;2023-07-31T01:37:20;8.77;;;2.40;;
39896;SDS011;25567;48.276;14.242;2023-07-31T01:39:47;6.93;;;2.60;;
39896;SDS011;25567;48.276;14.242;2023-07-31T01:42:13;9.05;;;2.70;;
39896;SDS011;25567;48.276;14.242;2023-07-31T01:44:40;6.13;;;2.50;;
39896;SDS011;25567;48.276;14.242;2023-07-31T01:47:07;8.15;;;2.72;;
39896;SDS011;25567;48.276;14.242;2023-07-31T01:49:33;11.02;;;2.90;;
39896;SDS011;25567;48.276;14.242;2023-07-31T01:51:59;11.50;;;3.05;;
39896;SDS011;25567;48.276;14.242;2023-07-31T01:54:26;7.55;;;2.90;;
39896;SDS011;25567;48.276;14.242;2023-07-31T01:56:52;10.68;;;2.92;;
39896;SDS011;25567;48.276;14.242;2023-07-31T01:59:19;7.28;;;2.78;;
39896;SDS011;25567;48.276;14.242;2023-07-31T02:01:45;7.75;;;3.08;;
39896;SDS011;25567;48.276;14.242;2023-07-31T02:04:12;8.27;;;2.67;;
39896;SDS011;25567;48.276;14.242;2023-07-31T02:06:38;11.85;;;2.70;;
39896;SDS011;25567;48.276;14.242;2023-07-31T02:09:06;7.18;;;2.75;;
39896;SDS011;25567;48.276;14.242;2023-07-31T02:11:32;7.50;;;2.83;;
39896;SDS011;25567;48.276;14.242;2023-07-31T02:13:59;7.22;;;2.45;;
39896;SDS011;25567;48.276;14.242;2023-07-31T02:16:25;6.00;;;2.50;;
39896;SDS011;25567;48.276;14.242;2023-07-31T02:18:52;5.18;;;2.95;;
39896;SDS011;25567;48.276;14.242;2023-07-31T02:21:18;4.65;;;2.35;;
39896;SDS011;25567;48.276;14.242;2023-07-31T02:23:45;7.88;;;2.47;;
39896;SDS011;25567;48.276;14.242;2023-07-31T02:26:11;5.70;;;2.60;;
39896;SDS011;25567;48.276;14.242;2023-07-31T02:28:38;7.00;;;2.90;;
39896;SDS011;25567;48.276;14.242;2023-07-31T02:31:04;7.97;;;2.83;;
39896;SDS011;25567;48.276;14.242;2023-07-31T02:33:31;8.00;;;2.83;;
39896;SDS011;25567;48.276;14.242;2023-07-31T02:35:57;6.20;;;2.60;;
39896;SDS011;25567;48.276;14.242;2023-07-31T02:38:24;5.40;;;2.50;;
39896;SDS011;25567;48.276;14.242;2023-07-31T02:40:50;12.00;;;2.92;;
39896;SDS011;25567;48.276;14.242;2023-07-31T02:43:17;8.18;;;3.03;;
39896;SDS011;25567;48.276;14.242;2023-07-31T02:45:43;7.30;;;2.70;;
39896;SDS011;25567;48.276;14.242;2023-07-31T02:48:10;8.50;;;2.60;;
39896;SDS011;25567;48.276;14.242;2023-07-31T02:50:36;9.95;;;2.75;;
39896;SDS011;25567;48.276;14.242;2023-07-31T02:53:03;5.38;;;2.88;;
39896;SDS011;25567;48.276;14.242;2023-07-31T02:55:29;9.90;;;2.42;;
39896;SDS011;25567;48.276;14.242;2023-07-31T02:57:56;9.65;;;2.88;;
39896;SDS011;25567;48.276;14.242;2023-07-31T03:00:22;4.80;;;2.60;;
39896;SDS011;25567;48.276;14.242;2023-07-31T03:02:49;9.05;;;3.00;;
39896;SDS011;25567;48.276;14.242;2023-07-31T03:05:16;5.75;;;2.38;;
39896;SDS011;25567;48.276;14.242;2023-07-31T03:07:42;10.07;;;2.67;;
39896;SDS011;25567;48.276;14.242;2023-07-31T03:10:09;6.53;;;2.60;;
39896;SDS011;25567;48.276;14.242;2023-07-31T03:12:35;9.00;;;3.00;;
39896;SDS011;25567;48.276;14.242;2023-07-31T03:15:02;11.20;;;2.90;;
39896;SDS011;25567;48.276;14.242;2023-07-31T03:17:29;9.70;;;3.00;;
39896;SDS011;25567;48.276;14.242;2023-07-31T03:19:55;4.18;;;2.45;;
39896;SDS011;25567;48.276;14.242;2023-07-31T03:22:22;5.55;;;2.70;;
39896;SDS011;25567;48.276;14.242;2023-07-31T03:24:48;12.27;;;2.97;;
39896;SDS011;25567;48.276;14.242;2023-07-31T03:27:15;7.88;;;2.65;;
39896;SDS011;25567;48.276;14.242;2023-07-31T03:29:41;5.95;;;2.50;;
39896;SDS011;25567;48.276;14.242;2023-07-31T03:32:08;8.43;;;2.88;;
39896;SDS011;25567;48.276;14.242;2023-07-31T03:34:34;10.45;;;2.80;;
39896;SDS011;25567;48.276;14.242;2023-07-31T03:37:01;6.60;;;2.80;;
39896;SDS011;25567;48.276;14.242;2023-07-31T03:39:27;6.25;;;2.78;;
39896;SDS011;25567;48.276;14.242;2023-07-31T03:41:54;6.68;;;2.67;;
39896;SDS011;25567;48.276;14.242;2023-07-31T03:44:20;10.57;;;2.60;;
39896;SDS011;25567;48.276;14.242;2023-07-31T03:46:47;6.32;;;2.60;;
39896;SDS011;25567;48.276;14.242;2023-07-31T03:49:13;6.25;;;2.50;;
39896;SDS011;25567;48.276;14.242;2023-07-31T03:51:40;8.38;;;2.72;;
39896;SDS011;25567;48.276;14.242;2023-07-31T03:54:08;12.65;;;3.08;;
39896;SDS011;25567;48.276;14.242;2023-07-31T03:56:34;9.18;;;2.90;;
39896;SDS011;25567;48.276;14.242;2023-07-31T03:59:01;6.15;;;2.67;;
39896;SDS011;25567;48.276;14.242;2023-07-31T04:01:28;13.43;;;2.83;;
39896;SDS011;25567;48.276;14.242;2023-07-31T04:03:55;9.90;;;2.75;;
39896;SDS011;25567;48.276;14.242;2023-07-31T04:06:21;5.32;;;2.35;;
39896;SDS011;25567;48.276;14.242;2023-07-31T04:08:48;5.68;;;2.63;;
39896;SDS011;25567;48.276;14.242;2023-07-31T04:11:14;4.40;;;2.45;;
39896;SDS011;25567;48.276;14.242;2023-07-31T04:13:41;3.95;;;2.38;;
39896;SDS011;25567;48.276;14.242;2023-07-31T04:16:08;6.95;;;2.70;;
39896;SDS011;25567;48.276;14.242;2023-07-31T04:18:34;7.72;;;2.60;;
39896;SDS011;25567;48.276;14.242;2023-07-31T04:21:01;5.93;;;3.00;;
39896;SDS011;25567;48.276;14.242;2023-07-31T04:23:28;8.80;;;2.67;;
39896;SDS011;25567;48.276;14.242;2023-07-31T04:25:55;12.48;;;2.70;;
39896;SDS011;25567;48.276;14.242;2023-07-31T04:28:22;7.75;;;2.80;;
39896;SDS011;25567;48.276;14.242;2023-07-31T04:30:48;3.72;;;2.60;;
39896;SDS011;25567;48.276;14.242;2023-07-31T04:33:16;9.52;;;3.63;;
39896;SDS011;25567;48.276;14.242;2023-07-31T04:35:48;8.30;;;3.28;;
39896;SDS011;25567;48.276;14.242;2023-07-31T04:38:21;10.07;;;3.10;;
39896;SDS011;25567;48.276;14.242;2023-07-31T04:40:47;7.30;;;3.00;;
39896;SDS011;25567;48.276;14.242;2023-07-31T04:43:14;8.43;;;3.33;;
39896;SDS011;25567;48.276;14.242;2023-07-31T04:45:49;5.53;;;2.83;;
39896;SDS011;25567;48.276;14.242;2023-07-31T04:48:16;8.25;;;3.20;;
39896;SDS011;25567;48.276;14.242;2023-07-31T04:50:43;9.07;;;3.05;;
39896;SDS011;25567;48.276;14.242;2023-07-31T04:53:10;6.28;;;2.60;;
39896;SDS011;25567;48.276;14.242;2023-07-31T04:55:36;7.30;;;3.17;;
39896;SDS011;25567;48.276;14.242;2023-07-31T04:58:03;11.05;;;3.47;;
39896;SDS011;25567;48.276;14.242;2023-07-31T05:00:29;9.32;;;3.10;;
39896;SDS011;25567;48.276;14.242;2023-07-31T05:02:56;10.05;;;3.22;;
39896;SDS011;25567;48.276;14.242;2023-07-31T05:05:23;6.80;;;3.17;;
39896;SDS011;25567;48.276;14.242;2023-07-31T05:07:49;7.80;;;3.30;;
39896;SDS011;25567;48.276;14.242;2023-07-31T05:10:16;10.27;;;4.00;;
39896;SDS011;25567;48.276;14.242;2023-07-31T05:12:42;7.65;;;3.17;;
39896;SDS011;25567;48.276;14.242;2023-07-31T05:15:09;8.40;;;3.72;;
39896;SDS011;25567;48.276;14.242;2023-07-31T05:17:36;12.98;;;3.85;;
39896;SDS011;25567;48.276;14.242;2023-07-31T05:20:02;8.95;;;3.70;;
39896;SDS011;25567;48.276;14.242;2023-07-31T05:22:29;11.80;;;4.18;;
39896;SDS011;25567;48.276;14.242;2023-07-31T05:24:55;11.48;;;3.83;;
39896;SDS011;25567;48.276;14.242;2023-07-31T05:27:22;6.40;;;3.10;;
39896;SDS011;25567;48.276;14.242;2023-07-31T05:29:48;6.90;;;3.30;;
39896;SDS011;25567;48.276;14.242;2023-07-31T05:32:15;14.00;;;3.22;;
39896;SDS011;25567;48.276;14.242;2023-07-31T05:34:42;7.75;;;3.63;;
39896;SDS011;25567;48.276;14.242;2023-07-31T05:37:09;8.00;;;3.80;;
39896;SDS011;25567;48.276;14.242;2023-07-31T05:39:36;8.82;;;3.53;;
39896;SDS011;25567;48.276;14.242;2023-07-31T05:42:02;13.57;;;3.63;;
39896;SDS011;25567;48.276;14.242;2023-07-31T05:44:29;6.32;;;3.45;;
39896;SDS011;25567;48.276;14.242;2023-07-31T05:46:56;11.02;;;3.35;;
39896;SDS011;25567;48.276;14.242;2023-07-31T05:49:22;6.47;;;3.47;;
39896;SDS011;25567;48.276;14.242;2023-07-31T05:51:49;10.13;;;3.75;;
39896;SDS011;25567;48.276;14.242;2023-07-31T05:54:15;8.30;;;3.08;;
39896;SDS011;25567;48.276;14.242;2023-07-31T05:56:42;7.20;;;3.50;;
39896;SDS011;25567;48.276;14.242;2023-07-31T05:59:09;10.25;;;3.72;;
39896;SDS011;25567;48.276;14.242;2023-07-31T06:01:36;13.02;;;3.95;;
39896;SDS011;25567;48.276;14.242;2023-07-31T06:04:03;12.65;;;3.75;;
39896;SDS011;25567;48.276;14.242;2023-07-31T06:06:29;12.23;;;3.65;;
39896;SDS011;25567;48.276;14.242;2023-07-31T06:08:56;8.23;;;3.17;;
39896;SDS011;25567;48.276;14.242;2023-07-31T06:11:22;12.77;;;3.03;;
39896;SDS011;25567;48.276;14.242;2023-07-31T06:13:49;9.77;;;2.80;;
39896;SDS011;25567;48.276;14.242;2023-07-31T06:16:16;4.53;;;2.63;;
39896;SDS011;25567;48.276;14.242;2023-07-31T06:18:43;10.02;;;3.25;;
39896;SDS011;25567;48.276;14.242;2023-07-31T06:21:09;10.63;;;2.47;;
39896;SDS011;25567;48.276;14.242;2023-07-31T06:23:36;8.73;;;2.63;;
39896;SDS011;25567;48.276;14.242;2023-07-31T06:26:02;4.78;;;2.10;;
39896;SDS011;25567;48.276;14.242;2023-07-31T06:28:29;6.72;;;2.40;;
39896;SDS011;25567;48.276;14.242;2023-07-31T06:30:56;8.85;;;2.25;;
39896;SDS011;25567;48.276;14.242;2023-07-31T06:33:23;12.32;;;2.40;;
39896;SDS011;25567;48.276;14.242;2023-07-31T06:35:50;8.23;;;2.33;;
39896;SDS011;25567;48.276;14.242;2023-07-31T06:38:18;7.45;;;2.00;;
39896;SDS011;25567;48.276;14.242;2023-07-31T06:40:45;9.32;;;2.67;;
39896;SDS011;25567;48.276;14.242;2023-07-31T06:43:12;8.57;;;2.00;;
39896;SDS011;25567;48.276;14.242;2023-07-31T06:45:38;4.72;;;2.20;;
39896;SDS011;25567;48.276;14.242;2023-07-31T06:48:05;9.13;;;1.95;;
39896;SDS011;25567;48.276;14.242;2023-07-31T06:50:31;5.38;;;2.00;;
39896;SDS011;25567;48.276;14.242;2023-07-31T06:52:58;7.97;;;2.38;;
39896;SDS011;25567;48.276;14.242;2023-07-31T06:55:25;6.20;;;1.70;;
39896;SDS011;25567;48.276;14.242;2023-07-31T06:57:53;10.55;;;2.00;;
39896;SDS011;25567;48.276;14.242;2023-07-31T07:00:20;6.18;;;1.90;;
39896;SDS011;25567;48.276;14.242;2023-07-31T07:02:47;7.22;;;2.25;;
39896;SDS011;25567;48.276;14.242;2023-07-31T07:05:14;4.50;;;1.77;;
39896;SDS011;25567;48.276;14.242;2023-07-31T07:07:41;10.00;;;2.17;;
39896;SDS011;25567;48.276;14.242;2023-07-31T07:10:08;5.38;;;2.00;;
39896;SDS011;25567;48.276;14.242;2023-07-31T07:12:35;5.50;;;1.60;;
39896;SDS011;25567;48.276;14.242;2023-07-31T07:15:02;5.75;;;2.03;;
39896;SDS011;25567;48.276;14.242;2023-07-31T07:17:29;6.50;;;1.83;;
39896;SDS011;25567;48.276;14.242;2023-07-31T07:19:58;8.20;;;2.00;;
39896;SDS011;25567;48.276;14.242;2023-07-31T07:22:24;6.68;;;2.00;;
39896;SDS011;25567;48.276;14.242;2023-07-31T07:24:52;8.27;;;1.73;;
39896;SDS011;25567;48.276;14.242;2023-07-31T07:27:18;6.15;;;1.90;;
39896;SDS011;25567;48.276;14.242;2023-07-31T07:29:45;8.50;;;1.70;;
39896;SDS011;25567;48.276;14.242;2023-07-31T07:32:12;3.50;;;1.75;;
39896;SDS011;25567;48.276;14.242;2023-07-31T07:34:38;8.25;;;2.20;;
39896;SDS011;25567;48.276;14.242;2023-07-31T07:37:05;5.28;;;1.33;;
39896;SDS011;25567;48.276;14.242;2023-07-31T07:39:32;10.10;;;1.70;;
39896;SDS011;25567;48.276;14.242;2023-07-31T07:41:58;9.48;;;1.70;;
39896;SDS011;25567;48.276;14.242;2023-07-31T07:44:24;8.27;;;1.98;;
39896;SDS011;25567;48.276;14.242;2023-07-31T07:46:51;7.32;;;1.92;;
39896;SDS011;25567;48.276;14.242;2023-07-31T07:49:18;10.88;;;1.77;;
39896;SDS011;25567;48.276;14.242;2023-07-31T07:51:44;8.02;;;2.08;;
39896;SDS011;25567;48.276;14.242;2023-07-31T07:54:11;7.32;;;1.90;;
39896;SDS011;25567;48.276;14.242;2023-07-31T07:56:37;8.00;;;1.90;;
39896;SDS011;25567;48.276;14.242;2023-07-31T07:59:04;3.47;;;1.67;;
39896;SDS011;25567;48.276;14.242;2023-07-31T08:01:31;6.03;;;1.77;;
39896;SDS011;25567;48.276;14.242;2023-07-31T08:03:58;6.47;;;1.90;;
39896;SDS011;25567;48.276;14.242;2023-07-31T08:06:24;4.60;;;2.03;;
39896;SDS011;25567;48.276;14.242;2023-07-31T08:08:51;8.55;;;1.83;;
39896;SDS011;25567;48.276;14.242;2023-07-31T08:11:17;4.60;;;1.70;;
39896;SDS011;25567;48.276;14.242;2023-07-31T08:13:44;6.07;;;1.80;;
39896;SDS011;25567;48.276;14.242;2023-07-31T08:16:11;4.45;;;1.60;;
39896;SDS011;25567;48.276;14.242;2023-07-31T08:18:37;5.88;;;1.70;;
39896;SDS011;25567;48.276;14.242;2023-07-31T08:21:04;10.90;;;2.00;;
39896;SDS011;25567;48.276;14.242;2023-07-31T08:23:31;7.88;;;2.22;;
39896;SDS011;25567;48.276;14.242;2023-07-31T08:25:57;6.68;;;1.77;;
39896;SDS011;25567;48.276;14.242;2023-07-31T08:28:25;10.73;;;2.10;;
39896;SDS011;25567;48.276;14.242;2023-07-31T08:30:52;7.05;;;1.83;;
39896;SDS011;25567;48.276;14.242;2023-07-31T08:33:18;7.20;;;1.63;;
39896;SDS011;25567;48.276;14.242;2023-07-31T08:35:45;4.85;;;1.75;;
39896;SDS011;25567;48.276;14.242;2023-07-31T08:38:11;4.40;;;1.77;;
39896;SDS011;25567;48.276;14.242;2023-07-31T08:40:38;7.00;;;1.90;;
39896;SDS011;25567;48.276;14.242;2023-07-31T08:43:04;7.38;;;1.90;;
39896;SDS011;25567;48.276;14.242;2023-07-31T08:45:31;5.20;;;1.60;;
39896;SDS011;25567;48.276;14.242;2023-07-31T08:47:58;6.15;;;1.95;;
39896;SDS011;25567;48.276;14.242;2023-07-31T08:50:25;4.75;;;1.63;;
39896;SDS011;25567;48.276;14.242;2023-07-31T08:52:52;14.40;;;1.80;;
39896;SDS011;25567;48.276;14.242;2023-07-31T08:55:19;4.93;;;1.70;;
39896;SDS011;25567;48.276;14.242;2023-07-31T08:57:51;11.85;;;2.05;;
39896;SDS011;25567;48.276;14.242;2023-07-31T09:00:18;5.03;;;1.67;;
39896;SDS011;25567;48.276;14.242;2023-07-31T09:05:20;5.97;;;2.10;;
39896;SDS011;25567;48.276;14.242;2023-07-31T09:07:48;5.43;;;1.90;;
39896;SDS011;25567;48.276;14.242;2023-07-31T09:10:16;6.10;;;1.80;;
39896;SDS011;25567;48.276;14.242;2023-07-31T09:12:43;6.15;;;1.50;;
39896;SDS011;25567;48.276;14.242;2023-07-31T09:15:09;4.30;;;1.88;;
39896;SDS011;25567;48.276;14.242;2023-07-31T09:17:59;5.70;;;1.95;;
39896;SDS011;25567;48.276;14.242;2023-07-31T09:20:29;9.68;;;1.80;;
39896;SDS011;25567;48.276;14.242;2023-07-31T09:22:55;7.13;;;1.98;;
39896;SDS011;25567;48.276;14.242;2023-07-31T09:25:23;6.20;;;1.80;;
39896;SDS011;25567;48.276;14.242;2023-07-31T09:27:57;6.75;;;1.67;;
39896;SDS011;25567;48.276;14.242;2023-07-31T09:30:24;7.53;;;2.10;;
39896;SDS011;25567;48.276;14.242;2023-07-31T09:32:51;9.82;;;2.20;;
39896;SDS011;25567;48.276;14.242;2023-07-31T09:35:22;5.30;;;1.83;;
39896;SDS011;25567;48.276;14.242;2023-07-31T09:37:52;6.35;;;2.17;;
39896;SDS011;25567;48.276;14.242;2023-07-31T09:40:32;6.50;;;1.83;;
39896;SDS011;25567;48.276;14.242;2023-07-31T09:43:03;7.30;;;1.77;;
39896;SDS011;25567;48.276;14.242;2023-07-31T09:45:29;5.55;;;1.95;;
39896;SDS011;25567;48.276;14.242;2023-07-31T09:48:10;4.32;;;1.60;;
39896;SDS011;25567;48.276;14.242;2023-07-31T09:50:37;4.38;;;1.60;;
39896;SDS011;25567;48.276;14.242;2023-07-31T09:53:05;10.35;;;2.25;;
39896;SDS011;25567;48.276;14.242;2023-07-31T09:55:31;5.68;;;1.73;;
39896;SDS011;25567;48.276;14.242;2023-07-31T09:57:58;7.28;;;1.70;;
39896;SDS011;25567;48.276;14.242;2023-07-31T10:00:25;6.63;;;1.60;;
39896;SDS011;25567;48.276;14.242;2023-07-31T10:02:54;4.10;;;1.70;;
39896;SDS011;25567;48.276;14.242;2023-07-31T10:05:24;7.45;;;1.80;;
39896;SDS011;25567;48.276;14.242;2023-07-31T10:07:57;5.07;;;1.60;;
39896;SDS011;25567;48.276;14.242;2023-07-31T10:10:24;7.63;;;1.98;;
39896;SDS011;25567;48.276;14.242;2023-07-31T10:12:54;5.53;;;1.70;;
39896;SDS011;25567;48.276;14.242;2023-07-31T10:15:22;5.70;;;1.63;;
39896;SDS011;25567;48.276;14.242;2023-07-31T10:17:49;5.15;;;1.70;;
39896;SDS011;25567;48.276;14.242;2023-07-31T10:20:16;6.03;;;1.80;;
39896;SDS011;25567;48.276;14.242;2023-07-31T10:22:43;7.50;;;1.88;;
39896;SDS011;25567;48.276;14.242;2023-07-31T10:25:12;8.52;;;1.77;;
39896;SDS011;25567;48.276;14.242;2023-07-31T10:27:39;11.50;;;1.70;;
39896;SDS011;25567;48.276;14.242;2023-07-31T10:30:06;4.47;;;1.40;;
39896;SDS011;25567;48.276;14.242;2023-07-31T10:32:34;7.90;;;1.70;;
39896;SDS011;25567;48.276;14.242;2023-07-31T10:35:01;4.95;;;1.58;;
39896;SDS011;25567;48.276;14.242;2023-07-31T10:37:29;5.55;;;1.70;;
39896;SDS011;25567;48.276;14.242;2023-07-31T10:42:33;6.78;;;1.80;;
39896;SDS011;25567;48.276;14.242;2023-07-31T10:45:04;3.50;;;1.65;;
39896;SDS011;25567;48.276;14.242;2023-07-31T10:47:36;4.57;;;1.42;;
39896;SDS011;25567;48.276;14.242;2023-07-31T10:50:13;5.38;;;1.70;;
39896;SDS011;25567;48.276;14.242;2023-07-31T10:52:44;6.47;;;1.50;;
39896;SDS011;25567;48.276;14.242;2023-07-31T10:57:53;4.70;;;1.60;;
39896;SDS011;25567;48.276;14.242;2023-07-31T11:02:59;6.22;;;1.52;;
39896;SDS011;25567;48.276;14.242;2023-07-31T11:08:15;7.07;;;1.30;;
39896;SDS011;25567;48.276;14.242;2023-07-31T11:10:43;6.28;;;1.45;;
39896;SDS011;25567;48.276;14.242;2023-07-31T11:13:10;4.35;;;1.60;;
39896;SDS011;25567;48.276;14.242;2023-07-31T11:15:37;4.25;;;1.70;;
39896;SDS011;25567;48.276;14.242;2023-07-31T11:18:04;5.22;;;1.80;;
39896;SDS011;25567;48.276;14.242;2023-07-31T11:20:32;4.60;;;1.65;;
39896;SDS011;25567;48.276;14.242;2023-07-31T11:23:00;8.75;;;2.25;;
39896;SDS011;25567;48.276;14.242;2023-07-31T11:25:28;3.97;;;1.42;;
39896;SDS011;25567;48.276;14.242;2023-07-31T11:27:55;5.22;;;1.95;;
39896;SDS011;25567;48.276;14.242;2023-07-31T11:30:22;6.53;;;1.55;;
39896;SDS011;25567;48.276;14.242;2023-07-31T11:32:49;5.60;;;1.45;;
39896;SDS011;25567;48.276;14.242;2023-07-31T11:35:17;3.40;;;1.52;;
39896;SDS011;25567;48.276;14.242;2023-07-31T11:37:44;5.43;;;2.05;;
39896;SDS011;25567;48.276;14.242;2023-07-31T11:40:11;5.93;;;1.95;;
39896;SDS011;25567;48.276;14.242;2023-07-31T11:42:38;4.40;;;1.73;;
39896;SDS011;25567;48.276;14.242;2023-07-31T11:45:08;2.97;;;1.33;;
39896;SDS011;25567;48.276;14.242;2023-07-31T11:47:36;3.90;;;1.50;;
39896;SDS011;25567;48.276;14.242;2023-07-31T11:50:03;5.40;;;1.45;;
39896;SDS011;25567;48.276;14.242;2023-07-31T11:52:32;4.35;;;1.50;;
39896;SDS011;25567;48.276;14.242;2023-07-31T11:55:00;6.60;;;1.35;;
39896;SDS011;25567;48.276;14.242;2023-07-31T11:57:27;5.85;;;1.50;;
39896;SDS011;25567;48.276;14.242;2023-07-31T11:59:54;5.57;;;1.45;;
39896;SDS011;25567;48.276;14.242;2023-07-31T12:02:21;5.93;;;1.58;;
39896;SDS011;25567;48.276;14.242;2023-07-31T12:04:48;6.78;;;1.90;;
39896;SDS011;25567;48.276;14.242;2023-07-31T12:07:15;5.13;;;1.92;;
39896;SDS011;25567;48.276;14.242;2023-07-31T12:09:54;3.15;;;1.40;;
39896;SDS011;25567;48.276;14.242;2023-07-31T12:12:21;3.25;;;1.60;;
39896;SDS011;25567;48.276;14.242;2023-07-31T12:14:48;5.43;;;1.65;;
39896;SDS011;25567;48.276;14.242;2023-07-31T12:17:14;2.42;;;1.35;;
39896;SDS011;25567;48.276;14.242;2023-07-31T12:19:41;5.32;;;1.60;;
39896;SDS011;25567;48.276;14.242;2023-07-31T12:22:14;3.47;;;1.73;;
39896;SDS011;25567;48.276;14.242;2023-07-31T12:24:42;5.57;;;1.92;;
39896;SDS011;25567;48.276;14.242;2023-07-31T12:27:11;6.85;;;1.70;;
39896;SDS011;25567;48.276;14.242;2023-07-31T12:29:38;4.07;;;1.40;;
39896;SDS011;25567;48.276;14.242;2023-07-31T12:32:20;4.00;;;1.73;;
39896;SDS011;25567;48.276;14.242;2023-07-31T12:34:47;4.38;;;1.75;;
39896;SDS011;25567;48.276;14.242;2023-07-31T12:37:13;5.70;;;1.58;;
39896;SDS011;25567;48.276;14.242;2023-07-31T12:39:40;6.03;;;1.75;;
39896;SDS011;25567;48.276;14.242;2023-07-31T12:42:06;5.38;;;1.90;;
39896;SDS011;25567;48.276;14.242;2023-07-31T12:44:33;2.65;;;1.70;;
39896;SDS011;25567;48.276;14.242;2023-07-31T12:46:59;3.38;;;1.58;;
39896;SDS011;25567;48.276;14.242;2023-07-31T12:49:26;5.70;;;1.95;;
39896;SDS011;25567;48.276;14.242;2023-07-31T12:51:52;7.25;;;2.63;;
39896;SDS011;25567;48.276;14.242;2023-07-31T12:54:20;5.80;;;1.95;;
39896;SDS011;25567;48.276;14.242;2023-07-31T12:56:46;7.72;;;1.83;;
39896;SDS011;25567;48.276;14.242;2023-07-31T12:59:13;4.07;;;2.22;;
39896;SDS011;25567;48.276;14.242;2023-07-31T13:01:40;2.90;;;1.52;;
39896;SDS011;25567;48.276;14.242;2023-07-31T13:04:07;6.68;;;2.00;;
39896;SDS011;25567;48.276;14.242;2023-07-31T13:06:34;4.65;;;1.75;;
39896;SDS011;25567;48.276;14.242;2023-07-31T13:09:01;3.38;;;1.75;;
39896;SDS011;25567;48.276;14.242;2023-07-31T13:11:27;6.82;;;1.80;;
39896;SDS011;25567;48.276;14.242;2023-07-31T13:13:54;4.75;;;1.77;;
39896;SDS011;25567;48.276;14.242;2023-07-31T13:16:21;6.00;;;1.80;;
39896;SDS011;25567;48.276;14.242;2023-07-31T13:18:47;4.43;;;1.70;;
39896;SDS011;25567;48.276;14.242;2023-07-31T13:21:14;5.90;;;2.20;;
39896;SDS011;25567;48.276;14.242;2023-07-31T13:23:40;7.00;;;2.03;;
39896;SDS011;25567;48.276;14.242;2023-07-31T13:26:07;5.55;;;1.90;;
39896;SDS011;25567;48.276;14.242;2023-07-31T13:28:33;4.00;;;2.05;;
39896;SDS011;25567;48.276;14.242;2023-07-31T13:31:00;6.13;;;1.85;;
39896;SDS011;25567;48.276;14.242;2023-07-31T13:33:26;4.70;;;1.95;;
39896;SDS011;25567;48.276;14.242;2023-07-31T13:36:03;6.82;;;1.77;;
39896;SDS011;25567;48.276;14.242;2023-07-31T13:38:30;7.70;;;2.05;;
39896;SDS011;25567;48.276;14.242;2023-07-31T13:40:57;7.75;;;1.75;;
39896;SDS011;25567;48.276;14.242;2023-07-31T13:43:23;4.40;;;1.58;;
39896;SDS011;25567;48.276;14.242;2023-07-31T13:45:49;4.35;;;1.70;;
39896;SDS011;25567;48.276;14.242;2023-07-31T13:48:16;4.15;;;2.03;;
39896;SDS011;25567;48.276;14.242;2023-07-31T13:50:42;5.22;;;2.10;;
39896;SDS011;25567;48.276;14.242;2023-07-31T13:53:09;4.00;;;1.60;;
39896;SDS011;25567;48.276;14.242;2023-07-31T13:55:36;2.72;;;1.80;;
39896;SDS011;25567;48.276;14.242;2023-07-31T13:58:02;5.70;;;1.80;;
39896;SDS011;25567;48.276;14.242;2023-07-31T14:00:29;6.13;;;2.05;;
39896;SDS011;25567;48.276;14.242;2023-07-31T14:02:56;5.43;;;1.90;;
39896;SDS011;25567;48.276;14.242;2023-07-31T14:05:22;3.53;;;1.70;;
39896;SDS011;25567;48.276;14.242;2023-07-31T14:07:49;4.65;;;2.00;;
39896;SDS011;25567;48.276;14.242;2023-07-31T14:10:15;4.40;;;1.77;;
39896;SDS011;25567;48.276;14.242;2023-07-31T14:12:42;4.65;;;2.00;;
39896;SDS011;25567;48.276;14.242;2023-07-31T14:15:09;3.20;;;1.88;;
39896;SDS011;25567;48.276;14.242;2023-07-31T14:17:35;6.57;;;2.13;;
39896;SDS011;25567;48.276;14.242;2023-07-31T14:20:02;4.03;;;1.88;;
39896;SDS011;25567;48.276;14.242;2023-07-31T14:22:30;9.98;;;2.00;;
39896;SDS011;25567;48.276;14.242;2023-07-31T14:24:56;4.35;;;1.80;;
39896;SDS011;25567;48.276;14.242;2023-07-31T14:27:23;4.07;;;1.65;;
39896;SDS011;25567;48.276;14.242;2023-07-31T14:29:50;2.45;;;1.75;;
39896;SDS011;25567;48.276;14.242;2023-07-31T14:32:16;6.03;;;1.77;;
39896;SDS011;25567;48.276;14.242;2023-07-31T14:34:42;4.70;;;1.90;;
39896;SDS011;25567;48.276;14.242;2023-07-31T14:37:09;5.65;;;2.00;;
39896;SDS011;25567;48.276;14.242;2023-07-31T14:39:35;4.05;;;1.55;;
39896;SDS011;25567;48.276;14.242;2023-07-31T14:42:06;4.82;;;1.92;;
39896;SDS011;25567;48.276;14.242;2023-07-31T14:44:33;4.85;;;1.80;;
39896;SDS011;25567;48.276;14.242;2023-07-31T14:46:59;3.80;;;1.77;;
39896;SDS011;25567;48.276;14.242;2023-07-31T14:49:26;3.92;;;1.73;;
39896;SDS011;25567;48.276;14.242;2023-07-31T14:51:54;6.25;;;1.90;;
39896;SDS011;25567;48.276;14.242;2023-07-31T14:54:21;2.97;;;1.70;;
39896;SDS011;25567;48.276;14.242;2023-07-31T14:56:47;2.72;;;1.70;;